Time;durP1;ratioP1;P1;durP2;ratioP2;P2;SDS_P1;SDS_P2;PMS_P1;PMS_P2;Temp;Humidity;BMP_temperature;BMP_pressure;BME280_temperature;BME280_humidity;BME280_pressure;Samples;Min_cycle;Max_cycle;Signal;HPM_P1;HPM_P2
2021/08/13 00:02:17;;;;;;;9.13;6.80;;;;;;;17.77;75.55;101282.03;4968591;28;20085;-81
2021/08/13 00:04:45;;;;;;;15.07;8.55;;;;;;;17.80;74.98;101279.97;4989504;28;20053;-80
2021/08/13 00:07:12;;;;;;;10.95;7.45;;;;;;;17.75;75.01;101278.66;4972232;28;20046;-84
2021/08/13 00:09:40;;;;;;;8.13;6.97;;;;;;;17.67;75.99;101277.38;4995351;28;20058;-83
2021/08/13 00:12:08;;;;;;;9.15;7.45;;;;;;;17.64;76.00;101279.44;4981299;28;20165;-83
2021/08/13 00:14:35;;;;;;;7.53;6.70;;;;;;;17.72;75.86;101274.38;5011777;28;20464;-84
2021/08/13 00:17:03;;;;;;;12.90;7.78;;;;;;;17.67;76.40;101274.72;4995801;28;20109;-81
2021/08/13 00:19:30;;;;;;;12.35;7.95;;;;;;;17.68;76.85;101278.25;5012277;28;20602;-81
2021/08/13 00:21:57;;;;;;;9.73;7.28;;;;;;;17.70;76.20;101279.81;5006761;28;20042;-84
2021/08/13 00:24:26;;;;;;;9.70;7.20;;;;;;;17.85;75.15;101283.13;4974255;28;20121;-80
2021/08/13 00:26:53;;;;;;;9.60;6.80;;;;;;;17.93;74.68;101280.69;5009765;28;20441;-81
2021/08/13 00:29:21;;;;;;;10.55;7.82;;;;;;;18.02;74.25;101286.28;4977156;28;20145;-84
2021/08/13 00:31:48;;;;;;;10.40;7.00;;;;;;;17.97;74.49;101286.63;4995006;28;20073;-86
2021/08/13 00:34:16;;;;;;;7.35;6.57;;;;;;;17.87;75.27;101285.66;4975929;28;20568;-80
2021/08/13 00:36:43;;;;;;;12.02;6.57;;;;;;;17.77;76.01;101290.84;4994342;28;20078;-80
2021/08/13 00:39:11;;;;;;;10.93;7.55;;;;;;;17.78;76.35;101281.06;4970710;28;20133;-81
2021/08/13 00:41:38;;;;;;;8.80;7.15;;;;;;;17.77;77.42;101282.88;4993636;28;20054;-81
2021/08/13 00:44:06;;;;;;;11.93;7.13;;;;;;;17.71;77.11;101286.84;4993282;28;20100;-81
2021/08/13 00:46:33;;;;;;;17.25;7.32;;;;;;;17.76;76.90;101283.84;4994343;28;20049;-85
2021/08/13 00:49:00;;;;;;;7.85;6.95;;;;;;;17.75;77.01;101284.81;4976993;28;20103;-81
2021/08/13 00:51:27;;;;;;;9.00;7.95;;;;;;;17.74;76.89;101284.91;4960608;28;20141;-82
2021/08/13 00:53:55;;;;;;;8.90;7.15;;;;;;;17.70;77.62;101284.31;5010733;28;20084;-80
2021/08/13 00:56:24;;;;;;;9.80;6.35;;;;;;;17.88;77.24;101293.53;4992909;28;20141;-85
2021/08/13 00:58:51;;;;;;;10.10;7.00;;;;;;;17.88;77.13;101288.22;4975017;28;20069;-81
2021/08/13 01:01:19;;;;;;;9.07;6.53;;;;;;;17.85;77.83;101295.59;4995416;28;20485;-81
2021/08/13 01:03:47;;;;;;;11.77;8.45;;;;;;;17.93;76.42;101290.50;4959856;28;20053;-81
2021/08/13 01:06:17;;;;;;;10.07;6.72;;;;;;;18.11;76.10;101282.88;4991492;28;20038;-81
2021/08/13 01:08:44;;;;;;;11.27;7.45;;;;;;;17.92;76.80;101276.34;4960265;28;20396;-82
2021/08/13 01:11:43;;;;;;;14.10;7.22;;;;;;;17.80;77.57;101279.13;4997158;28;20796;-82
2021/08/13 01:14:35;;;;;;;11.57;7.22;;;;;;;17.81;77.53;101273.66;4999747;28;20042;-82
2021/08/13 01:17:04;;;;;;;13.45;7.40;;;;;;;17.71;77.01;101264.69;5009540;28;20076;-80
2021/08/13 01:19:37;;;;;;;13.80;7.20;;;;;;;17.74;77.19;101264.47;4976314;28;20133;-81
2021/08/13 01:22:10;;;;;;;10.82;6.53;;;;;;;17.75;77.95;101265.34;4987931;28;20074;-79
2021/08/13 01:24:41;;;;;;;10.50;7.40;;;;;;;17.71;77.52;101268.19;4994127;28;20061;-80
2021/08/13 01:27:12;;;;;;;8.98;6.93;;;;;;;17.78;77.66;101276.56;4978905;28;20038;-87
2021/08/13 01:29:50;;;;;;;10.80;7.70;;;;;;;17.68;77.56;101272.91;4984251;28;20043;-80
2021/08/13 01:32:34;;;;;;;11.20;7.03;;;;;;;17.66;77.88;101267.72;4979289;28;20051;-81
2021/08/13 01:35:13;;;;;;;11.57;7.60;;;;;;;17.65;78.44;101266.03;4995281;28;20049;-81
2021/08/13 01:37:51;;;;;;;8.27;6.47;;;;;;;17.72;77.56;101259.22;4991825;28;20042;-81
2021/08/13 01:40:18;;;;;;;9.98;7.53;;;;;;;17.75;76.73;101260.00;4974987;28;20049;-82
2021/08/13 01:42:47;;;;;;;8.95;6.85;;;;;;;17.83;76.22;101255.78;5002745;28;20049;-82
2021/08/13 01:45:19;;;;;;;12.68;7.38;;;;;;;17.95;74.47;101260.09;4973975;28;20052;-83
2021/08/13 01:47:53;;;;;;;9.20;7.03;;;;;;;18.02;74.19;101256.97;4984719;28;20047;-82
2021/08/13 01:50:21;;;;;;;10.93;7.80;;;;;;;18.04;75.14;101253.19;4992048;28;20516;-80
2021/08/13 01:52:50;;;;;;;12.85;7.60;;;;;;;17.92;75.77;101249.72;4991107;28;20112;-82
2021/08/13 01:55:31;;;;;;;9.90;7.63;;;;;;;17.86;75.31;101246.69;4972909;28;20405;-82
2021/08/13 01:58:11;;;;;;;14.85;7.47;;;;;;;17.90;74.97;101250.78;4979189;28;20468;-85
2021/08/13 02:00:39;;;;;;;8.63;7.53;;;;;;;17.80;76.11;101249.84;4960572;28;20505;-80
2021/08/13 02:03:08;;;;;;;8.85;7.68;;;;;;;17.74;76.90;101244.97;4985645;28;20092;-81
2021/08/13 02:05:37;;;;;;;12.50;7.90;;;;;;;17.73;77.17;101244.09;4961731;28;20409;-82
2021/08/13 02:08:07;;;;;;;10.10;7.78;;;;;;;17.75;77.67;101239.56;4995450;28;20053;-82
2021/08/13 02:10:37;;;;;;;10.65;7.65;;;;;;;17.63;77.99;101253.78;4982805;28;20089;-82
2021/08/13 02:13:05;;;;;;;11.60;7.55;;;;;;;17.54;78.47;101247.38;4981261;28;20428;-82
2021/08/13 02:15:35;;;;;;;13.55;7.57;;;;;;;17.45;78.92;101251.59;4993615;28;20141;-83
2021/08/13 02:18:07;;;;;;;10.40;7.65;;;;;;;17.41;79.24;101250.13;4990602;28;20133;-81
2021/08/13 02:20:37;;;;;;;9.20;7.47;;;;;;;17.35;79.56;101252.44;4977855;28;20132;-82
2021/08/13 02:23:07;;;;;;;10.27;7.30;;;;;;;17.36;80.22;101252.31;4983398;28;20074;-79
2021/08/13 02:25:35;;;;;;;8.32;6.95;;;;;;;17.35;80.11;101257.75;4995938;28;20125;-81
2021/08/13 02:28:02;;;;;;;11.60;7.50;;;;;;;17.37;80.52;101255.81;4974436;28;20045;-84
2021/08/13 02:30:29;;;;;;;11.55;7.82;;;;;;;17.44;80.08;101259.72;4980242;28;20054;-83
2021/08/13 02:32:58;;;;;;;8.63;7.70;;;;;;;17.39;79.71;101256.56;4973828;28;20128;-82
2021/08/13 02:35:25;;;;;;;13.13;8.05;;;;;;;17.36;80.23;101259.44;5010370;28;20058;-83
2021/08/13 02:37:55;;;;;;;9.95;7.50;;;;;;;17.31;80.33;101251.81;4982745;28;20111;-81
2021/08/13 02:40:28;;;;;;;9.25;7.38;;;;;;;17.36;81.59;101259.44;5013679;28;20046;-84
2021/08/13 02:43:18;;;;;;;10.98;7.80;;;;;;;17.49;81.14;101249.56;4993308;28;20177;-82
2021/08/13 02:45:46;;;;;;;11.43;7.75;;;;;;;17.56;80.34;101252.56;4983410;28;20045;-81
2021/08/13 02:48:15;;;;;;;12.75;7.78;;;;;;;17.48;79.13;101249.69;4988985;28;20081;-81
2021/08/13 02:50:44;;;;;;;10.02;7.93;;;;;;;17.49;79.35;101248.72;5004259;28;20125;-81
2021/08/13 02:53:17;;;;;;;8.35;7.20;;;;;;;17.54;79.14;101247.38;4985568;28;20104;-81
2021/08/13 02:55:46;;;;;;;9.18;8.25;;;;;;;17.59;78.73;101241.69;4995383;28;20078;-80
2021/08/13 02:58:18;;;;;;;10.65;8.40;;;;;;;17.75;77.14;101249.34;4975037;28;20092;-82
2021/08/13 03:00:46;;;;;;;8.95;7.70;;;;;;;17.74;77.28;101250.31;4998785;28;20053;-82
2021/08/13 03:03:16;;;;;;;7.45;6.28;;;;;;;17.82;76.58;101259.38;4992655;28;20049;-82
2021/08/13 03:05:48;;;;;;;14.40;7.43;;;;;;;17.77;76.72;101256.25;4978669;28;20046;-82
2021/08/13 03:08:18;;;;;;;9.98;7.65;;;;;;;17.94;76.68;101261.06;5004166;28;20057;-83
2021/08/13 03:10:47;;;;;;;9.10;7.65;;;;;;;17.76;78.01;101259.88;4993862;28;20474;-81
2021/08/13 03:13:18;;;;;;;9.55;7.60;;;;;;;17.64;78.94;101266.97;4968921;28;20457;-83
2021/08/13 03:15:45;;;;;;;13.98;8.18;;;;;;;17.70;77.36;101263.84;4978992;28;20132;-82
2021/08/13 03:18:13;;;;;;;10.15;7.47;;;;;;;17.76;77.34;101259.03;4993157;28;20137;-81
2021/08/13 03:20:42;;;;;;;10.50;8.20;;;;;;;17.74;76.51;101261.78;4994078;28;20596;-81
2021/08/13 03:23:09;;;;;;;13.30;7.68;;;;;;;17.83;76.72;101257.56;4964679;28;20052;-83
2021/08/13 03:25:38;;;;;;;12.00;7.95;;;;;;;17.63;77.70;101257.28;4980301;28;20544;-81
2021/08/13 03:28:07;;;;;;;12.32;7.85;;;;;;;17.61;78.13;101261.06;4972729;28;20034;-82
2021/08/13 03:30:47;;;;;;;9.15;7.88;;;;;;;17.52;78.57;101254.66;4996502;28;20140;-82
2021/08/13 03:33:16;;;;;;;9.05;7.95;;;;;;;17.55;78.63;101257.03;4970193;28;20064;-80
2021/08/13 03:35:44;;;;;;;8.75;7.50;;;;;;;17.45;78.67;101253.41;4985457;28;20074;-82
2021/08/13 03:38:11;;;;;;;13.85;8.35;;;;;;;17.41;78.81;101262.59;5007516;28;20544;-81
2021/08/13 03:40:42;;;;;;;10.25;7.45;;;;;;;17.51;78.00;101254.75;4970917;28;20077;-84
2021/08/13 03:43:09;;;;;;;12.65;7.78;;;;;;;17.62;78.09;101258.28;4976755;28;20077;-81
2021/08/13 03:45:39;;;;;;;8.65;7.65;;;;;;;17.71;77.33;101260.22;5001699;28;20144;-84
2021/08/13 03:48:06;;;;;;;11.60;8.48;;;;;;;17.73;77.13;101254.75;4980969;28;20069;-83
2021/08/13 03:50:33;;;;;;;14.70;8.43;;;;;;;17.58;78.38;101254.16;5018557;28;20553;-81
2021/08/13 03:53:01;;;;;;;9.05;8.02;;;;;;;17.53;78.88;101253.66;4977595;28;20188;-82
2021/08/13 03:55:28;;;;;;;12.68;8.48;;;;;;;17.49;77.83;101260.19;4982072;28;20077;-81
2021/08/13 03:57:57;;;;;;;14.32;10.05;;;;;;;17.44;78.67;101262.38;4990346;28;20042;-84
2021/08/13 04:00:24;;;;;;;18.05;12.13;;;;;;;17.48;78.55;101260.31;4988516;28;20085;-82
2021/08/13 04:02:52;;;;;;;13.85;9.70;;;;;;;17.41;79.44;101251.94;4957440;28;20085;-82
2021/08/13 04:05:21;;;;;;;13.65;9.10;;;;;;;17.44;80.13;101249.06;4970425;28;20069;-81
2021/08/13 04:07:49;;;;;;;11.70;7.95;;;;;;;17.42;80.02;101249.16;5006631;28;20089;-81
2021/08/13 04:10:17;;;;;;;9.65;8.38;;;;;;;17.48;79.98;101247.84;4985852;28;20073;-81
2021/08/13 04:12:44;;;;;;;10.90;8.40;;;;;;;17.55;79.18;101253.53;4981509;28;20038;-82
2021/08/13 04:15:14;;;;;;;10.88;8.00;;;;;;;17.68;79.11;101247.13;4978319;28;20536;-80
2021/08/13 04:17:41;;;;;;;14.13;8.02;;;;;;;17.78;78.25;101257.09;4977308;28;20049;-80
2021/08/13 04:20:09;;;;;;;11.55;8.25;;;;;;;17.88;77.98;101258.06;4961093;28;20556;-80
2021/08/13 04:22:36;;;;;;;11.43;7.90;;;;;;;18.00;77.59;101265.06;4961965;28;20045;-79
2021/08/13 04:25:07;;;;;;;11.63;8.40;;;;;;;18.14;76.88;101259.47;5006892;28;20489;-82
2021/08/13 04:27:34;;;;;;;12.55;8.07;;;;;;;18.22;76.44;101257.03;4985024;28;20119;-84
2021/08/13 04:30:02;;;;;;;11.30;9.00;;;;;;;18.43;75.29;101245.59;5003992;28;20076;-82
2021/08/13 04:32:29;;;;;;;10.48;8.55;;;;;;;18.46;74.49;101246.22;5014474;28;20097;-81
2021/08/13 04:34:59;;;;;;;11.10;8.55;;;;;;;18.54;73.83;101252.72;4994993;28;20101;-80
2021/08/13 04:37:27;;;;;;;18.17;8.13;;;;;;;18.53;73.71;101243.88;4978039;28;20052;-81
2021/08/13 04:39:58;;;;;;;9.77;7.85;;;;;;;18.60;73.73;101236.22;4976264;28;20072;-79
2021/08/13 04:42:25;;;;;;;15.00;8.43;;;;;;;18.63;73.57;101238.63;5009802;28;20068;-80
2021/08/13 04:44:52;;;;;;;10.80;7.85;;;;;;;18.66;73.19;101249.88;4975207;28;20046;-80
2021/08/13 04:47:35;;;;;;;11.43;7.95;;;;;;;18.65;73.40;101248.19;4991984;28;20057;-79
2021/08/13 04:50:02;;;;;;;14.48;9.00;;;;;;;18.72;72.64;101243.22;5012755;28;20469;-80
2021/08/13 04:52:42;;;;;;;13.38;8.45;;;;;;;18.71;73.06;101245.03;4974346;28;20108;-80
2021/08/13 04:55:09;;;;;;;12.65;8.30;;;;;;;18.79;73.42;101251.56;5012960;28;20042;-76
2021/08/13 04:57:37;;;;;;;11.40;8.35;;;;;;;18.84;72.69;101249.34;4973157;28;20133;-83
2021/08/13 05:00:32;;;;;;;14.55;8.38;;;;;;;18.93;72.65;101257.44;4989471;28;20073;-87
2021/08/13 05:03:04;;;;;;;12.48;9.32;;;;;;;18.95;72.92;101252.78;4987673;28;20054;-79
2021/08/13 05:05:32;;;;;;;11.70;8.80;;;;;;;18.93;72.61;101253.91;5005142;28;20548;-81
2021/08/13 05:07:59;;;;;;;14.30;8.25;;;;;;;18.83;73.50;101256.50;4987763;28;20493;-83
2021/08/13 05:10:26;;;;;;;14.90;8.20;;;;;;;19.04;72.22;101256.50;5008075;28;20073;-83
2021/08/13 05:12:56;;;;;;;14.23;8.43;;;;;;;19.05;72.20;101252.88;4992837;28;20061;-80
2021/08/13 05:15:23;;;;;;;12.02;8.15;;;;;;;19.02;72.33;101253.13;5011978;28;20057;-81
2021/08/13 05:17:51;;;;;;;10.32;8.63;;;;;;;19.06;71.96;101254.56;4990833;28;20062;-82
2021/08/13 05:20:20;;;;;;;11.02;8.18;;;;;;;19.07;71.81;101247.41;4981418;28;20402;-80
2021/08/13 05:22:47;;;;;;;17.73;8.18;;;;;;;19.12;71.27;101247.88;4986790;28;20129;-89
2021/08/13 05:25:15;;;;;;;9.25;7.43;;;;;;;19.09;71.02;101243.66;4950852;28;20046;-83
2021/08/13 05:27:46;;;;;;;12.32;7.93;;;;;;;19.02;71.33;101242.47;5011279;28;20077;-84
2021/08/13 05:30:14;;;;;;;14.23;9.25;;;;;;;18.97;71.69;101248.19;5012178;28;20081;-84
2021/08/13 05:32:43;;;;;;;13.52;8.65;;;;;;;19.04;71.54;101251.16;4991699;28;20092;-85
2021/08/13 05:35:11;;;;;;;10.63;7.93;;;;;;;19.09;71.75;101261.47;4993018;28;20054;-84
2021/08/13 05:37:40;;;;;;;13.50;8.57;;;;;;;19.19;71.37;101263.22;4973501;28;20046;-81
2021/08/13 05:40:08;;;;;;;10.50;9.25;;;;;;;19.21;71.37;101249.75;4993282;28;20437;-84
2021/08/13 05:42:36;;;;;;;12.65;8.85;;;;;;;19.28;70.97;101255.44;4967433;28;20050;-85
2021/08/13 05:45:04;;;;;;;13.02;8.98;;;;;;;19.32;71.04;101251.47;4960968;28;20542;-84
2021/08/13 05:47:33;;;;;;;12.77;9.25;;;;;;;19.37;70.96;101257.31;4992465;28;20068;-86
2021/08/13 05:50:00;;;;;;;12.30;8.88;;;;;;;19.34;71.00;101254.88;4993953;28;20092;-84
2021/08/13 05:52:28;;;;;;;13.65;9.27;;;;;;;19.34;71.38;101257.56;4989307;28;20130;-85
2021/08/13 05:54:55;;;;;;;14.13;9.32;;;;;;;19.33;71.48;101250.53;4986074;28;20084;-86
2021/08/13 05:57:22;;;;;;;12.63;8.32;;;;;;;19.33;72.35;101256.72;4957045;28;20263;-83
2021/08/13 05:59:49;;;;;;;14.18;8.75;;;;;;;19.29;72.29;101265.13;4997718;28;20476;-83
2021/08/13 06:02:20;;;;;;;13.55;9.15;;;;;;;19.72;71.24;101260.47;4972951;28;20050;-81
2021/08/13 06:04:47;;;;;;;12.18;8.88;;;;;;;22.90;60.45;101253.75;4981597;28;20567;-84
2021/08/13 06:07:14;;;;;;;12.95;8.32;;;;;;;25.91;50.99;101257.34;4968956;28;20110;-85
2021/08/13 06:09:43;;;;;;;14.70;7.63;;;;;;;27.47;44.84;101252.50;4993055;28;20435;-82
2021/08/13 06:12:10;;;;;;;10.63;7.57;;;;;;;29.10;41.34;101261.06;4953054;28;20470;-85
2021/08/13 06:14:37;;;;;;;10.70;7.82;;;;;;;30.02;39.35;101263.50;4993166;28;20054;-84
2021/08/13 06:17:04;;;;;;;13.57;7.13;;;;;;;30.91;36.49;101253.50;4972242;28;20046;-81
2021/08/13 06:19:32;;;;;;;16.90;8.35;;;;;;;31.48;35.34;101244.69;4974457;28;20074;-86
2021/08/13 06:22:01;;;;;;;19.55;7.85;;;;;;;32.39;33.72;101253.78;4971420;28;20081;-86
2021/08/13 06:24:28;;;;;;;25.67;8.05;;;;;;;32.41;33.08;101254.38;4959663;28;20133;-84
2021/08/13 06:26:56;;;;;;;19.17;7.32;;;;;;;32.71;33.10;101252.72;4990817;28;20540;-83
2021/08/13 06:29:23;;;;;;;19.52;8.52;;;;;;;33.02;31.96;101253.75;4999136;28;20151;-84
2021/08/13 06:31:52;;;;;;;16.45;8.13;;;;;;;32.62;32.89;101253.22;4991058;28;20291;-86
2021/08/13 06:34:20;;;;;;;14.02;7.57;;;;;;;32.34;33.16;101254.41;4974160;28;20717;-83
2021/08/13 06:36:47;;;;;;;20.42;8.38;;;;;;;33.26;31.97;101249.31;5005160;28;20061;-83
2021/08/13 06:39:14;;;;;;;17.35;7.65;;;;;;;33.47;30.93;101251.66;4989321;28;20097;-81
2021/08/13 06:41:52;;;;;;;19.20;8.18;;;;;;;33.75;30.85;101253.84;4987113;28;20078;-84
2021/08/13 06:44:20;;;;;;;11.52;7.57;;;;;;;33.38;31.82;101261.16;5010838;28;20124;-83
2021/08/13 06:46:48;;;;;;;15.63;7.80;;;;;;;34.46;30.25;101265.13;4970297;28;20481;-84
2021/08/13 06:49:15;;;;;;;14.35;8.20;;;;;;;33.40;31.68;101274.56;4975454;28;20037;-85
2021/08/13 06:52:10;;;;;;;13.88;7.88;;;;;;;33.11;31.95;101266.06;5007407;28;20131;-84
2021/08/13 06:54:38;;;;;;;18.23;7.80;;;;;;;32.23;33.28;101263.25;4975845;28;20078;-81
2021/08/13 06:57:09;;;;;;;9.02;7.40;;;;;;;32.77;32.52;101259.16;4984117;28;20068;-83
2021/08/13 06:59:36;;;;;;;14.88;8.52;;;;;;;32.27;33.36;101259.88;4993624;28;20165;-82
2021/08/13 07:02:07;;;;;;;10.38;8.55;;;;;;;31.70;34.11;101258.00;4984164;28;20038;-84
2021/08/13 07:04:34;;;;;;;14.93;7.47;;;;;;;32.76;32.99;101266.50;4961651;28;20280;-83
2021/08/13 07:07:03;;;;;;;13.15;8.60;;;;;;;33.01;32.37;101258.38;4987964;28;20042;-83
2021/08/13 07:09:30;;;;;;;11.68;7.30;;;;;;;34.15;30.83;101266.19;4988378;28;20109;-81
2021/08/13 07:11:57;;;;;;;11.77;8.32;;;;;;;34.01;30.79;101273.75;4962444;28;20038;-83
2021/08/13 07:14:25;;;;;;;11.68;7.53;;;;;;;33.67;31.63;101265.06;5004174;28;20072;-84
2021/08/13 07:16:52;;;;;;;19.02;9.52;;;;;;;32.99;32.38;101262.38;4995084;28;20104;-82
2021/08/13 07:19:19;;;;;;;14.50;7.88;;;;;;;33.91;30.94;101260.59;4996327;28;20046;-83
2021/08/13 07:21:47;;;;;;;15.63;8.18;;;;;;;34.32;30.22;101269.97;4994145;28;20517;-81
2021/08/13 07:24:15;;;;;;;9.93;7.80;;;;;;;34.47;30.04;101269.56;4977037;28;20113;-81
2021/08/13 07:26:42;;;;;;;12.52;7.35;;;;;;;34.58;30.16;101266.00;4968949;28;20715;-82
2021/08/13 07:29:09;;;;;;;14.05;8.30;;;;;;;35.08;29.60;101267.53;4972050;28;20142;-83
2021/08/13 07:31:37;;;;;;;19.75;9.38;;;;;;;35.43;28.88;101259.31;4993190;28;20124;-82
2021/08/13 07:34:05;;;;;;;22.85;9.50;;;;;;;35.87;28.32;101263.31;4976986;28;20078;-80
2021/08/13 07:36:33;;;;;;;11.48;7.97;;;;;;;35.40;28.87;101257.91;4982394;28;20049;-85
2021/08/13 07:39:00;;;;;;;14.95;8.82;;;;;;;36.09;28.16;101263.50;4998208;28;20121;-82
2021/08/13 07:41:27;;;;;;;10.60;8.13;;;;;;;36.05;28.11;101276.03;4974102;28;20078;-83
2021/08/13 07:43:55;;;;;;;16.13;8.73;;;;;;;35.36;28.52;101275.06;4995380;28;20159;-84
2021/08/13 07:46:22;;;;;;;18.00;9.00;;;;;;;35.30;28.96;101265.88;4991554;28;20065;-83
2021/08/13 07:48:50;;;;;;;13.23;9.38;;;;;;;35.90;28.51;101262.00;4991554;28;20533;-83
2021/08/13 07:51:18;;;;;;;16.00;9.32;;;;;;;36.57;27.65;101262.22;4992025;28;20389;-83
2021/08/13 07:53:45;;;;;;;12.38;8.30;;;;;;;37.05;26.52;101266.31;4972647;28;20061;-83
2021/08/13 07:56:15;;;;;;;12.35;7.25;;;;;;;36.80;26.21;101255.75;5017296;28;20034;-84
2021/08/13 07:58:42;;;;;;;13.23;8.38;;;;;;;37.03;26.46;101259.44;4987403;28;20442;-83
2021/08/13 08:01:09;;;;;;;12.52;8.23;;;;;;;37.62;25.80;101255.06;4996345;28;20187;-82
2021/08/13 08:03:36;;;;;;;12.10;8.90;;;;;;;36.58;26.91;101258.41;5015322;28;20050;-82
2021/08/13 08:06:04;;;;;;;18.05;7.28;;;;;;;37.25;26.18;101249.34;4995882;28;20054;-84
2021/08/13 08:08:31;;;;;;;20.05;9.38;;;;;;;37.85;25.73;101258.69;4987200;28;20460;-82
2021/08/13 08:11:01;;;;;;;15.70;7.63;;;;;;;38.62;24.95;101258.41;4973795;28;20121;-82
2021/08/13 08:13:28;;;;;;;16.35;8.68;;;;;;;38.43;24.43;101260.72;4993829;28;20064;-83
2021/08/13 08:15:55;;;;;;;25.05;8.93;;;;;;;37.68;25.56;101259.53;4978595;28;20510;-84
2021/08/13 08:18:23;;;;;;;12.25;8.32;;;;;;;38.44;24.93;101264.28;4993631;28;20124;-83
2021/08/13 08:20:50;;;;;;;13.82;8.82;;;;;;;38.23;25.37;101253.06;4976576;28;20429;-82
2021/08/13 08:23:20;;;;;;;16.33;7.78;;;;;;;38.24;25.07;101257.47;4985922;28;20128;-83
2021/08/13 08:25:47;;;;;;;19.08;8.45;;;;;;;37.72;25.79;101262.63;4990012;28;20068;-83
2021/08/13 08:28:18;;;;;;;22.60;9.55;;;;;;;37.93;25.32;101258.22;4963345;28;20050;-81
2021/08/13 08:30:45;;;;;;;13.45;8.75;;;;;;;37.66;25.93;101260.91;5026645;28;20062;-88
2021/08/13 08:33:12;;;;;;;11.02;7.45;;;;;;;38.68;24.71;101259.25;5010639;28;20022;-88
2021/08/13 08:35:39;;;;;;;14.68;8.45;;;;;;;37.63;25.87;101256.72;5002202;28;20030;-86
2021/08/13 08:38:08;;;;;;;15.88;8.65;;;;;;;37.48;26.76;101262.88;4980784;28;20053;-87
2021/08/13 08:40:39;;;;;;;19.55;7.82;;;;;;;37.05;26.78;101263.56;4976171;28;20066;-88
2021/08/13 08:43:09;;;;;;;14.18;9.20;;;;;;;34.04;30.93;101269.69;4987301;28;20050;-87
2021/08/13 08:45:46;;;;;;;13.27;7.82;;;;;;;32.42;34.22;101276.00;5006218;28;20042;-87
2021/08/13 08:48:14;;;;;;;17.95;8.20;;;;;;;31.52;35.72;101266.84;4981229;28;20038;-88
2021/08/13 08:50:45;;;;;;;21.83;8.75;;;;;;;31.23;36.54;101268.97;4999255;28;20108;-87
2021/08/13 08:53:21;;;;;;;13.13;7.63;;;;;;;30.78;36.66;101267.94;5005072;28;20078;-86
2021/08/13 08:55:48;;;;;;;14.63;7.25;;;;;;;30.74;37.67;101274.81;5012967;28;20038;-87
2021/08/13 08:58:18;;;;;;;13.25;7.45;;;;;;;30.40;38.98;101268.47;4999070;28;20050;-87
2021/08/13 09:00:45;;;;;;;12.38;7.15;;;;;;;30.11;39.10;101261.44;5018677;28;20060;-88
2021/08/13 09:03:14;;;;;;;15.65;7.10;;;;;;;30.16;38.42;101266.31;5019400;28;20042;-88
2021/08/13 09:05:44;;;;;;;14.90;6.93;;;;;;;30.05;38.45;101264.16;4993176;28;20402;-87
2021/08/13 09:08:11;;;;;;;12.73;6.38;;;;;;;29.81;39.18;101260.94;5024460;28;20057;-88
2021/08/13 09:10:40;;;;;;;12.80;6.88;;;;;;;29.81;39.08;101260.94;5015341;28;20053;-88
2021/08/13 09:13:10;;;;;;;14.73;7.90;;;;;;;29.50;40.59;101253.22;5004934;28;20042;-87
2021/08/13 09:15:40;;;;;;;23.58;7.68;;;;;;;29.53;41.05;101252.78;5013791;28;20077;-90
2021/08/13 09:18:14;;;;;;;14.13;7.57;;;;;;;29.44;41.17;101254.00;4973782;28;20077;-87
2021/08/13 09:20:43;;;;;;;11.07;7.22;;;;;;;29.51;40.74;101266.56;5015443;28;20070;-89
2021/08/13 09:23:11;;;;;;;19.60;6.10;;;;;;;29.36;40.54;101273.13;5000570;28;20038;-88
2021/08/13 09:25:40;;;;;;;11.10;6.78;;;;;;;29.52;41.65;101264.69;4989021;28;20057;-87
2021/08/13 09:28:11;;;;;;;11.13;5.32;;;;;;;29.61;39.91;101271.66;4981613;28;20344;-88
2021/08/13 09:30:52;;;;;;;13.98;7.22;;;;;;;29.39;40.87;101278.16;4994461;28;20052;-88
2021/08/13 09:33:25;;;;;;;14.70;8.05;;;;;;;29.49;40.72;101274.06;4978244;28;20273;-87
2021/08/13 09:36:00;;;;;;;10.95;7.05;;;;;;;29.84;40.41;101273.25;5001702;28;20041;-87
2021/08/13 09:38:28;;;;;;;9.18;6.00;;;;;;;30.00;40.11;101267.47;4987377;28;20060;-86
2021/08/13 09:41:14;;;;;;;8.45;6.78;;;;;;;29.77;40.43;101265.91;5005699;28;20050;-88
2021/08/13 09:43:54;;;;;;;11.52;6.60;;;;;;;29.55;40.51;101261.63;5009426;28;20633;-87
2021/08/13 09:46:22;;;;;;;11.43;6.65;;;;;;;29.74;40.02;101260.88;5022845;28;20064;-87
2021/08/13 09:48:50;;;;;;;10.50;6.18;;;;;;;30.06;38.81;101254.97;5005057;28;20061;-88
2021/08/13 09:51:34;;;;;;;11.80;6.60;;;;;;;29.38;40.88;101252.09;5004479;28;20146;-87
2021/08/13 09:54:04;;;;;;;8.38;5.78;;;;;;;30.00;39.64;101245.75;4995206;28;20081;-88
2021/08/13 09:56:35;;;;;;;7.57;5.63;;;;;;;30.13;37.77;101248.53;4982656;28;20042;-87
2021/08/13 09:59:20;;;;;;;9.60;4.85;;;;;;;30.16;38.49;101247.28;5001033;28;20069;-89
2021/08/13 10:01:47;;;;;;;;;;;;;;;30.32;37.65;101232.53;5002224;28;20401;-86
2021/08/13 10:04:17;;;;;;;7.45;5.90;;;;;;;30.24;37.64;101237.09;4982683;28;20004;-87
2021/08/13 10:06:46;;;;;;;12.90;5.57;;;;;;;30.05;37.79;101239.72;4991154;28;20042;-85
2021/08/13 10:09:24;;;;;;;23.52;6.03;;;;;;;30.06;37.75;101241.38;4992648;28;20050;-87
2021/08/13 10:11:57;;;;;;;6.80;4.60;;;;;;;30.29;37.47;101244.63;5007126;28;20101;-87
2021/08/13 10:14:31;;;;;;;9.27;5.47;;;;;;;30.42;37.64;101244.66;4987721;28;20050;-88
2021/08/13 10:17:13;;;;;;;9.65;5.55;;;;;;;30.41;36.64;101240.25;4999336;28;20045;-89
2021/08/13 10:19:43;;;;;;;9.48;5.45;;;;;;;30.32;37.79;101236.06;4965454;28;20144;-88
2021/08/13 10:22:11;;;;;;;9.85;6.70;;;;;;;30.34;36.72;101235.84;5010535;28;20097;-87
2021/08/13 10:24:43;;;;;;;7.22;5.55;;;;;;;30.51;36.70;101246.13;4989933;28;20417;-87
2021/08/13 10:27:13;;;;;;;9.68;5.20;;;;;;;30.70;36.72;101240.91;4992295;28;20206;-88
2021/08/13 10:29:43;;;;;;;7.22;5.20;;;;;;;30.57;37.02;101252.59;4980064;28;20042;-88
2021/08/13 10:32:11;;;;;;;5.82;5.00;;;;;;;30.72;36.23;101242.44;4977554;28;20042;-87
2021/08/13 10:34:39;;;;;;;8.02;5.15;;;;;;;30.66;36.85;101251.38;5002518;28;20486;-88
2021/08/13 10:37:12;;;;;;;6.07;5.18;;;;;;;30.64;36.33;101239.88;4998938;28;20057;-87
2021/08/13 10:39:41;;;;;;;11.82;5.10;;;;;;;30.59;36.74;101236.94;5011947;28;20042;-88
2021/08/13 10:42:14;;;;;;;7.25;4.78;;;;;;;30.54;36.73;101233.19;5007399;28;20043;-86
2021/08/13 10:44:55;;;;;;;10.23;5.03;;;;;;;30.76;36.91;101232.81;5011897;28;20026;-88
2021/08/13 10:47:28;;;;;;;9.05;5.65;;;;;;;30.83;36.27;101229.25;4999395;28;20038;-87
2021/08/13 10:49:58;;;;;;;11.47;6.50;;;;;;;30.59;37.76;101239.66;5017662;28;20077;-88
2021/08/13 10:52:36;;;;;;;9.52;5.72;;;;;;;30.61;37.41;101234.00;5021535;28;20065;-87
2021/08/13 10:55:07;;;;;;;10.20;5.38;;;;;;;30.76;36.76;101230.09;5016201;28;20077;-88
2021/08/13 10:57:53;;;;;;;8.63;5.68;;;;;;;30.54;36.72;101228.59;4990888;28;20057;-86
2021/08/13 11:00:21;;;;;;;8.02;5.88;;;;;;;30.62;36.66;101227.53;5032703;28;20066;-85
2021/08/13 11:03:17;;;;;;;9.20;6.03;;;;;;;30.48;36.75;101237.53;4993756;28;20042;-87
2021/08/13 11:05:57;;;;;;;10.25;5.40;;;;;;;30.27;36.39;101233.97;4995643;28;20073;-87
2021/08/13 11:08:46;;;;;;;19.10;5.43;;;;;;;30.37;36.79;101219.16;5002843;28;20046;-85
2021/08/13 11:11:14;;;;;;;15.05;6.22;;;;;;;29.75;37.35;101229.16;5002756;28;20052;-87
2021/08/13 11:13:43;;;;;;;11.48;5.47;;;;;;;29.79;37.30;101226.88;4996015;28;20037;-87
2021/08/13 11:16:29;;;;;;;11.00;5.50;;;;;;;30.13;37.46;101228.69;4980954;28;20050;-86
2021/08/13 11:19:06;;;;;;;7.07;5.15;;;;;;;30.43;36.58;101221.88;5021750;28;20072;-84
2021/08/13 11:21:36;;;;;;;9.30;4.55;;;;;;;30.63;36.14;101215.63;4983876;28;20049;-83
2021/08/13 11:24:06;;;;;;;9.90;6.05;;;;;;;30.10;36.69;101227.19;4977534;28;20153;-82
2021/08/13 11:26:53;;;;;;;10.38;4.55;;;;;;;29.95;36.98;101221.94;5015500;28;20401;-88
2021/08/13 11:29:30;;;;;;;11.65;5.38;;;;;;;30.20;37.23;101216.81;5020777;28;20050;-89
2021/08/13 11:32:13;;;;;;;6.93;4.90;;;;;;;30.52;36.28;101201.59;5009095;28;20053;-87
2021/08/13 11:34:52;;;;;;;10.18;5.63;;;;;;;30.79;35.30;101198.94;4990132;28;20080;-85